createdAt,value
2018-11-10T00:00:28.105Z,25.50
2018-11-10T00:02:55.578Z,24.57
2018-11-10T00:05:23.802Z,23.00
2018-11-10T00:07:51.257Z,23.73
2018-11-10T00:10:19.558Z,23.80
2018-11-10T00:12:47.630Z,23.13
2018-11-10T00:15:15.262Z,22.30
2018-11-10T00:17:43.638Z,24.17
2018-11-10T00:20:11.321Z,23.60
2018-11-10T00:22:40.050Z,23.77
2018-11-10T00:25:08.782Z,23.30
2018-11-10T00:27:36.289Z,23.50
2018-11-10T00:30:03.949Z,22.77
2018-11-10T00:32:31.330Z,23.20
2018-11-10T00:34:58.719Z,24.07
2018-11-10T00:37:26.056Z,23.33
2018-11-10T00:39:53.517Z,22.90
2018-11-10T00:42:21.459Z,23.87
2018-11-10T00:44:49.453Z,23.20
2018-11-10T00:47:16.883Z,21.80
2018-11-10T00:49:44.409Z,23.57
2018-11-10T00:52:11.851Z,23.53
2018-11-10T00:54:39.187Z,22.47
2018-11-10T00:57:06.649Z,22.77
2018-11-10T00:59:34.240Z,22.47
2018-11-10T01:02:01.641Z,19.97
2018-11-10T01:04:28.997Z,21.33
2018-11-10T01:06:56.463Z,21.13
2018-11-10T01:09:23.849Z,19.97
2018-11-10T01:11:51.184Z,22.60
2018-11-10T01:14:21.195Z,20.43
2018-11-10T01:16:48.800Z,19.53
2018-11-10T01:19:16.238Z,21.17
2018-11-10T01:21:43.591Z,20.60
2018-11-10T01:24:11.076Z,20.20
2018-11-10T01:26:38.495Z,22.60
2018-11-10T01:29:06.576Z,21.33
2018-11-10T01:31:33.967Z,21.33
2018-11-10T01:34:01.382Z,22.03
2018-11-10T01:36:28.923Z,22.03
2018-11-10T01:38:56.240Z,22.63
2018-11-10T01:41:23.610Z,22.57
2018-11-10T01:43:50.940Z,21.47
2018-11-10T01:46:18.324Z,22.03
2018-11-10T01:48:45.655Z,20.40
2018-11-10T01:51:13.042Z,20.27
2018-11-10T01:53:40.379Z,22.17
2018-11-10T01:56:07.836Z,21.60
2018-11-10T01:58:35.222Z,21.47
2018-11-10T02:01:02.586Z,21.00
2018-11-10T02:03:30.027Z,20.97
2018-11-10T02:05:57.388Z,19.93
2018-11-10T02:08:24.799Z,20.30
2018-11-10T02:10:52.259Z,19.90
2018-11-10T02:13:19.661Z,19.03
2018-11-10T02:15:47.031Z,19.60
2018-11-10T02:18:14.403Z,20.27
2018-11-10T02:20:41.769Z,18.40
2018-11-10T02:23:09.133Z,19.27
2018-11-10T02:25:36.557Z,18.17
2018-11-10T02:28:03.981Z,18.43
2018-11-10T02:30:31.361Z,18.83
2018-11-10T02:32:59.700Z,18.13
2018-11-10T02:35:27.115Z,18.07
2018-11-10T02:37:54.489Z,18.17
2018-11-10T02:40:21.829Z,17.20
2018-11-10T02:42:49.302Z,17.07
2018-11-10T02:45:17.226Z,16.27
2018-11-10T02:47:45.149Z,16.70
2018-11-10T02:50:12.574Z,17.17
2018-11-10T02:52:40.110Z,16.60
2018-11-10T02:55:08.371Z,16.03
2018-11-10T02:57:35.718Z,17.03
2018-11-10T03:00:03.049Z,16.60
2018-11-10T03:02:30.378Z,16.20
2018-11-10T03:04:57.788Z,15.67
2018-11-10T03:07:25.183Z,15.37
2018-11-10T03:09:52.594Z,14.33
2018-11-10T03:12:19.896Z,13.83
2018-11-10T03:14:47.308Z,13.83
2018-11-10T03:17:15.290Z,13.33
2018-11-10T03:19:42.785Z,13.30
2018-11-10T03:22:10.136Z,12.93
2018-11-10T03:24:37.538Z,11.90
2018-11-10T03:27:06.465Z,12.20
2018-11-10T03:29:33.868Z,12.10
2018-11-10T03:32:01.237Z,11.90
2018-11-10T03:34:28.778Z,11.10
2018-11-10T03:36:56.259Z,11.93
2018-11-10T03:39:23.611Z,10.80
2018-11-10T03:41:51.009Z,10.83
2018-11-10T03:44:18.349Z,10.43
2018-11-10T03:46:45.686Z,9.90
2018-11-10T03:49:13.141Z,10.50
2018-11-10T03:51:42.727Z,9.67
2018-11-10T03:54:10.221Z,9.90
2018-11-10T03:56:37.685Z,9.80
2018-11-10T03:59:05.544Z,10.17
2018-11-10T04:01:32.884Z,9.87
2018-11-10T04:04:00.256Z,10.20
2018-11-10T04:06:27.604Z,9.33
2018-11-10T04:08:54.941Z,8.93
2018-11-10T04:11:22.324Z,9.07
2018-11-10T04:13:49.783Z,8.20
2018-11-10T04:16:17.216Z,8.50
2018-11-10T04:18:44.538Z,7.80
2018-11-10T04:21:12.022Z,8.57
2018-11-10T04:23:39.757Z,7.77
2018-11-10T04:26:13.975Z,8.23
2018-11-10T04:28:41.630Z,8.37
2018-11-10T04:31:09.020Z,7.90
2018-11-10T04:33:36.448Z,8.33
2018-11-10T04:36:04.042Z,7.60
2018-11-10T04:38:31.410Z,7.20
2018-11-10T04:40:58.792Z,7.67
2018-11-10T04:43:26.118Z,6.60
2018-11-10T04:45:53.534Z,6.93
2018-11-10T04:48:21.055Z,6.47
2018-11-10T04:50:48.482Z,6.60
2018-11-10T04:53:15.843Z,6.03
2018-11-10T04:55:43.253Z,6.93
2018-11-10T04:58:10.744Z,5.53
2018-11-10T05:00:38.191Z,6.20
2018-11-10T05:03:05.729Z,5.23
2018-11-10T05:05:33.154Z,4.80
2018-11-10T05:08:00.657Z,4.83
2018-11-10T05:10:28.024Z,4.53
2018-11-10T05:12:55.395Z,4.83
2018-11-10T05:15:22.833Z,4.53
2018-11-10T05:17:50.853Z,4.60
2018-11-10T05:20:18.205Z,4.60
2018-11-10T05:22:45.527Z,4.17
2018-11-10T05:25:12.876Z,4.10
2018-11-10T05:27:40.520Z,4.10
2018-11-10T05:30:08.521Z,4.30
2018-11-10T05:32:35.961Z,4.13
2018-11-10T05:35:03.474Z,4.30
2018-11-10T05:37:30.859Z,3.90
2018-11-10T05:39:58.217Z,4.10
2018-11-10T05:42:25.620Z,3.70
2018-11-10T05:44:52.978Z,3.80
2018-11-10T05:47:20.314Z,3.23
2018-11-10T05:49:47.714Z,3.63
2018-11-10T05:52:15.102Z,3.83
2018-11-10T05:54:42.550Z,3.47
2018-11-10T05:57:09.994Z,3.53
2018-11-10T05:59:38.024Z,3.80
2018-11-10T06:02:06.029Z,4.17
2018-11-10T06:04:33.607Z,3.53
2018-11-10T06:07:00.976Z,3.60
2018-11-10T06:09:28.376Z,3.33
2018-11-10T06:11:55.816Z,3.20
2018-11-10T06:14:23.248Z,3.27
2018-11-10T06:16:50.600Z,2.80
2018-11-10T06:19:18.054Z,3.10
2018-11-10T06:21:45.396Z,3.23
2018-11-10T06:24:12.773Z,3.13
2018-11-10T06:26:40.266Z,3.80
2018-11-10T06:29:07.662Z,3.23
2018-11-10T06:31:35.110Z,3.43
2018-11-10T06:34:02.462Z,3.13
2018-11-10T06:36:29.826Z,3.50
2018-11-10T06:38:57.191Z,3.50
2018-11-10T06:41:24.731Z,3.37
2018-11-10T06:43:52.007Z,3.27
2018-11-10T06:46:21.003Z,3.80
2018-11-10T06:48:48.777Z,3.60
2018-11-10T06:51:16.363Z,3.50
2018-11-10T06:53:43.729Z,3.80
2018-11-10T06:56:11.211Z,3.60
2018-11-10T06:58:39.739Z,3.67
2018-11-10T07:01:07.133Z,3.53
2018-11-10T07:03:34.583Z,3.57
2018-11-10T07:06:01.972Z,3.80
2018-11-10T07:08:29.348Z,3.90
2018-11-10T07:11:04.506Z,3.90
2018-11-10T07:13:32.098Z,3.23
2018-11-10T07:15:59.432Z,3.10
2018-11-10T07:18:27.343Z,3.57
2018-11-10T07:20:54.685Z,3.70
2018-11-10T07:23:22.172Z,3.73
2018-11-10T07:25:49.620Z,3.23
2018-11-10T07:28:17.072Z,3.53
2018-11-10T07:30:45.003Z,3.50
2018-11-10T07:33:12.352Z,3.57
2018-11-10T07:35:39.717Z,3.13
2018-11-10T07:38:07.181Z,3.20
2018-11-10T07:40:34.706Z,3.20
2018-11-10T07:43:02.226Z,3.30
2018-11-10T07:45:30.676Z,3.40
2018-11-10T07:47:58.085Z,2.97
2018-11-10T07:50:25.800Z,3.00
2018-11-10T07:52:53.872Z,3.30
2018-11-10T07:55:21.621Z,2.97
2018-11-10T07:57:48.963Z,3.30
2018-11-10T08:00:17.481Z,3.40
2018-11-10T08:02:45.008Z,3.57
2018-11-10T08:05:13.741Z,3.80
2018-11-10T08:07:42.705Z,3.70
2018-11-10T08:10:10.718Z,3.87
2018-11-10T08:12:38.771Z,3.93
2018-11-10T08:15:08.709Z,3.47
2018-11-10T08:17:36.333Z,3.90
2018-11-10T08:20:03.845Z,3.90
2018-11-10T08:22:31.245Z,3.83
2018-11-10T08:24:58.764Z,4.27
2018-11-10T08:27:26.302Z,5.40
2018-11-10T08:29:53.660Z,4.40
2018-11-10T08:32:21.158Z,5.63
2018-11-10T08:34:49.186Z,8.40
2018-11-10T08:37:16.572Z,8.97
2018-11-10T08:39:44.082Z,9.03
2018-11-10T08:42:11.630Z,8.77
2018-11-10T08:44:39.041Z,8.97
2018-11-10T08:47:07.040Z,8.60
2018-11-10T08:49:34.714Z,8.77
2018-11-10T08:52:02.240Z,9.60
2018-11-10T08:54:29.766Z,8.83
2018-11-10T08:56:57.356Z,8.07
2018-11-10T08:59:24.874Z,8.27
2018-11-10T09:01:52.278Z,8.27
2018-11-10T09:04:19.738Z,8.03
2018-11-10T09:06:47.132Z,7.40
2018-11-10T09:09:14.588Z,7.67
2018-11-10T09:11:42.107Z,7.87
2018-11-10T09:14:09.737Z,7.30
2018-11-10T09:16:37.206Z,8.23
2018-11-10T09:19:05.500Z,7.80
2018-11-10T09:21:33.078Z,7.47
2018-11-10T09:24:00.463Z,8.37
2018-11-10T09:26:27.848Z,7.60
2018-11-10T09:28:55.270Z,7.03
2018-11-10T09:31:22.667Z,7.60
2018-11-10T09:33:50.791Z,7.80
2018-11-10T09:36:18.295Z,7.93
2018-11-10T09:38:46.392Z,7.60
2018-11-10T09:41:14.562Z,7.83
2018-11-10T09:43:41.961Z,8.10
2018-11-10T09:46:09.283Z,7.57
2018-11-10T09:48:36.674Z,8.00
2018-11-10T09:51:04.156Z,7.20
2018-11-10T09:53:31.973Z,7.83
2018-11-10T09:55:59.363Z,8.30
2018-11-10T09:58:26.915Z,8.70
2018-11-10T10:00:54.478Z,8.63
2018-11-10T10:03:21.811Z,9.63
2018-11-10T10:05:49.361Z,9.43
2018-11-10T10:08:16.816Z,9.33
2018-11-10T10:10:44.195Z,10.10
2018-11-10T10:13:11.612Z,9.57
2018-11-10T10:15:39.172Z,9.70
2018-11-10T10:18:06.661Z,8.87
2018-11-10T10:20:34.025Z,9.83
2018-11-10T10:23:01.529Z,11.53
2018-11-10T10:25:28.905Z,16.67
2018-11-10T10:27:56.362Z,11.73
2018-11-10T10:30:24.974Z,10.37
2018-11-10T10:32:52.618Z,9.33
2018-11-10T10:35:20.193Z,9.13
2018-11-10T10:37:48.783Z,9.80
2018-11-10T10:40:16.376Z,9.40
2018-11-10T10:42:45.985Z,8.97
2018-11-10T10:45:16.730Z,9.47
2018-11-10T10:47:44.462Z,9.13
2018-11-10T10:50:14.163Z,9.60
2018-11-10T10:52:41.750Z,9.67
2018-11-10T10:55:10.516Z,9.60
2018-11-10T10:57:38.651Z,9.50
2018-11-10T11:00:14.267Z,9.60
2018-11-10T11:02:47.990Z,10.50
2018-11-10T11:05:18.173Z,10.83
2018-11-10T11:07:46.119Z,9.93
2018-11-10T11:10:13.439Z,9.53
2018-11-10T11:12:40.877Z,9.97
2018-11-10T11:15:08.343Z,10.17
2018-11-10T11:17:35.948Z,10.40
2018-11-10T11:20:03.689Z,9.83
2018-11-10T11:22:31.123Z,10.93
2018-11-10T11:24:58.515Z,9.83
2018-11-10T11:27:26.168Z,10.03
2018-11-10T11:29:53.716Z,8.87
2018-11-10T11:32:21.177Z,9.80
2018-11-10T11:34:48.763Z,10.03
2018-11-10T11:37:16.551Z,9.33
2018-11-10T11:39:44.170Z,9.03
2018-11-10T11:42:12.293Z,9.50
2018-11-10T11:44:40.424Z,9.50
2018-11-10T11:47:07.662Z,9.13
2018-11-10T11:49:35.082Z,9.50
2018-11-10T11:52:02.465Z,9.27
2018-11-10T11:54:29.827Z,9.37
2018-11-10T11:56:57.250Z,9.00
2018-11-10T11:59:24.875Z,8.77
2018-11-10T12:01:52.214Z,9.33
2018-11-10T12:04:19.718Z,9.37
2018-11-10T12:06:47.050Z,9.87
2018-11-10T12:09:14.438Z,9.63
2018-11-10T12:11:41.958Z,9.70
2018-11-10T12:14:09.393Z,9.87
2018-11-10T12:16:36.773Z,10.13
2018-11-10T12:19:04.721Z,9.63
2018-11-10T12:21:32.091Z,10.23
2018-11-10T12:23:59.454Z,10.33
2018-11-10T12:26:26.813Z,10.13
2018-11-10T12:28:54.820Z,9.83
2018-11-10T12:31:22.279Z,9.80
2018-11-10T12:33:49.908Z,10.17
2018-11-10T12:36:17.302Z,10.70
2018-11-10T12:38:44.661Z,10.90
2018-11-10T12:41:12.175Z,10.23
2018-11-10T12:43:39.799Z,10.70
2018-11-10T12:46:07.289Z,10.83
2018-11-10T12:48:34.905Z,11.10
2018-11-10T12:51:02.634Z,9.93
2018-11-10T12:53:29.981Z,11.57
2018-11-10T12:55:57.425Z,10.50
2018-11-10T12:58:25.101Z,11.67
2018-11-10T13:00:52.677Z,12.30
2018-11-10T13:03:20.113Z,11.67
2018-11-10T13:05:47.587Z,11.67
2018-11-10T13:08:15.139Z,11.20
2018-11-10T13:10:42.524Z,11.00
2018-11-10T13:13:09.891Z,10.87
2018-11-10T13:15:37.257Z,10.57
2018-11-10T13:18:04.727Z,11.57
2018-11-10T13:20:32.258Z,11.30
2018-11-10T13:23:00.296Z,11.00
2018-11-10T13:25:27.872Z,10.97
2018-11-10T13:27:55.462Z,11.90
2018-11-10T13:30:23.003Z,11.10
2018-11-10T13:32:50.405Z,11.37
2018-11-10T13:35:17.895Z,11.70
2018-11-10T13:37:45.225Z,11.00
2018-11-10T13:40:12.624Z,10.60
2018-11-10T13:42:40.098Z,8.57
2018-11-10T13:45:09.408Z,7.60
2018-11-10T13:47:36.919Z,6.90
2018-11-10T13:52:44.427Z,5.73
2018-11-10T13:55:13.492Z,4.53
2018-11-10T13:57:40.836Z,4.17
2018-11-10T14:00:11.680Z,3.90
2018-11-10T14:02:39.201Z,3.50
2018-11-10T14:05:06.718Z,3.57
2018-11-10T14:07:34.279Z,3.40
2018-11-10T14:10:01.789Z,3.70
2018-11-10T14:12:29.454Z,3.33
2018-11-10T14:14:56.937Z,3.40
2018-11-10T14:17:24.291Z,3.03
2018-11-10T14:19:51.796Z,3.20
2018-11-10T14:22:19.293Z,3.40
2018-11-10T14:24:46.747Z,3.00
2018-11-10T14:27:14.145Z,3.13
2018-11-10T14:29:41.658Z,3.23
2018-11-10T14:32:09.184Z,3.10
2018-11-10T14:34:36.563Z,3.30
2018-11-10T14:37:03.987Z,2.70
2018-11-10T14:39:31.543Z,3.00
2018-11-10T14:41:58.925Z,3.40
2018-11-10T14:44:26.252Z,3.23
2018-11-10T14:46:53.624Z,3.50
2018-11-10T14:49:21.094Z,3.23
2018-11-10T14:51:48.550Z,3.27
2018-11-10T14:54:16.043Z,3.97
2018-11-10T14:56:43.406Z,4.10
2018-11-10T14:59:10.769Z,4.30
2018-11-10T15:01:38.230Z,4.17
2018-11-10T15:04:05.940Z,4.20
2018-11-10T15:06:33.362Z,3.90
2018-11-10T15:09:00.994Z,4.43
2018-11-10T15:11:28.486Z,4.23
2018-11-10T15:13:56.031Z,3.77
2018-11-10T15:16:23.468Z,3.50
2018-11-10T15:18:50.833Z,3.30
2018-11-10T15:21:18.303Z,3.33
2018-11-10T15:23:46.666Z,3.50
2018-11-10T15:26:14.216Z,3.60
2018-11-10T15:28:41.702Z,3.83
2018-11-10T15:31:09.080Z,3.80
2018-11-10T15:33:36.434Z,4.10
2018-11-10T15:36:03.837Z,3.70
2018-11-10T15:38:31.259Z,3.70
2018-11-10T15:40:59.147Z,3.73
2018-11-10T15:43:26.530Z,3.33
2018-11-10T15:45:54.043Z,3.83
2018-11-10T15:48:21.399Z,3.40
2018-11-10T15:50:48.872Z,3.83
2018-11-10T15:53:16.326Z,3.90
2018-11-10T15:55:43.751Z,3.93
2018-11-10T15:58:11.117Z,3.47
2018-11-10T16:00:38.511Z,3.43
2018-11-10T16:03:05.959Z,6.13
2018-11-10T16:05:33.405Z,4.70
2018-11-10T16:08:01.137Z,3.93
2018-11-10T16:10:28.676Z,3.73
2018-11-10T16:12:56.047Z,4.23
2018-11-10T16:15:23.551Z,4.47
2018-11-10T16:17:51.808Z,4.40
2018-11-10T16:20:20.138Z,4.77
2018-11-10T16:22:49.063Z,4.27
2018-11-10T16:25:17.106Z,4.70
2018-11-10T16:27:44.815Z,4.87
2018-11-10T16:30:13.864Z,4.43
2018-11-10T16:32:41.266Z,4.50
2018-11-10T16:35:08.990Z,4.60
2018-11-10T16:37:36.494Z,4.10
2018-11-10T16:40:06.104Z,3.70
2018-11-10T16:42:33.514Z,3.30
2018-11-10T16:45:00.962Z,4.00
2018-11-10T16:47:28.360Z,3.20
2018-11-10T16:49:55.805Z,3.57
2018-11-10T16:52:23.267Z,3.60
2018-11-10T16:54:50.859Z,3.30
2018-11-10T16:57:18.533Z,3.60
2018-11-10T16:59:46.084Z,3.50
2018-11-10T17:02:13.591Z,3.70
2018-11-10T17:04:41.040Z,4.40
2018-11-10T17:07:08.431Z,4.70
2018-11-10T17:09:35.905Z,4.47
2018-11-10T17:12:03.451Z,5.10
2018-11-10T17:14:30.894Z,4.37
2018-11-10T17:16:58.320Z,5.20
2018-11-10T17:19:25.743Z,5.10
2018-11-10T17:21:53.290Z,5.10
2018-11-10T17:24:20.601Z,4.83
2018-11-10T17:26:48.000Z,5.03
2018-11-10T17:29:15.423Z,5.53
2018-11-10T17:31:42.941Z,5.57
2018-11-10T17:34:10.439Z,5.40
2018-11-10T17:36:37.839Z,5.10
2018-11-10T17:39:07.447Z,5.50
2018-11-10T17:41:34.964Z,5.20
2018-11-10T17:44:02.617Z,5.60
2018-11-10T17:46:30.127Z,6.20
2018-11-10T17:48:57.577Z,6.20
2018-11-10T17:51:25.279Z,5.83
2018-11-10T17:53:52.655Z,5.77
2018-11-10T17:56:20.071Z,6.90
2018-11-10T17:58:47.932Z,6.13
2018-11-10T18:01:15.234Z,7.43
2018-11-10T18:03:42.687Z,6.60
2018-11-10T18:06:10.692Z,6.87
2018-11-10T18:08:38.184Z,7.47
2018-11-10T18:11:06.120Z,7.50
2018-11-10T18:13:33.487Z,7.27
2018-11-10T18:16:00.946Z,8.23
2018-11-10T18:18:28.524Z,7.77
2018-11-10T18:20:55.949Z,7.67
2018-11-10T18:23:23.496Z,8.00
2018-11-10T18:25:51.011Z,7.57
2018-11-10T18:28:18.402Z,7.23
2018-11-10T18:30:45.743Z,8.07
2018-11-10T18:33:13.474Z,8.00
2018-11-10T18:35:40.883Z,7.63
2018-11-10T18:38:08.282Z,8.10
2018-11-10T18:40:35.647Z,8.03
2018-11-10T18:43:03.101Z,7.90
2018-11-10T18:45:30.533Z,7.97
2018-11-10T18:47:58.052Z,8.83
2018-11-10T18:50:25.485Z,8.20
2018-11-10T18:52:52.913Z,8.13
2018-11-10T18:55:20.314Z,8.33
2018-11-10T18:57:48.160Z,8.47
2018-11-10T19:00:16.780Z,8.43
2018-11-10T19:02:44.627Z,8.30
2018-11-10T19:05:13.340Z,8.23
2018-11-10T19:07:40.900Z,8.47
2018-11-10T19:10:10.464Z,9.13
2018-11-10T19:12:38.269Z,8.23
2018-11-10T19:15:08.369Z,9.07
2018-11-10T19:17:35.801Z,9.17
2018-11-10T19:20:03.149Z,9.20
2018-11-10T19:22:31.269Z,8.23
2018-11-10T19:24:58.806Z,7.70
2018-11-10T19:27:26.244Z,7.90
2018-11-10T19:29:53.768Z,7.97
2018-11-10T19:32:21.209Z,8.50
2018-11-10T19:34:48.962Z,7.87
2018-11-10T19:37:16.676Z,8.13
2018-11-10T19:39:44.109Z,7.43
2018-11-10T19:42:11.501Z,8.17
2018-11-10T19:44:39.037Z,7.93
2018-11-10T19:47:06.300Z,7.63
2018-11-10T19:49:33.849Z,7.60
2018-11-10T19:52:01.324Z,7.33
2018-11-10T19:54:28.781Z,7.97
2018-11-10T19:56:56.929Z,7.23
2018-11-10T19:59:24.303Z,7.60
2018-11-10T20:01:52.077Z,7.70
2018-11-10T20:04:19.517Z,7.77
2018-11-10T20:06:47.575Z,8.37
2018-11-10T20:09:14.903Z,12.40
2018-11-10T20:11:42.436Z,10.83
2018-11-10T20:14:10.931Z,9.53
2018-11-10T20:16:38.308Z,7.97
2018-11-10T20:19:05.759Z,7.93
2018-11-10T20:21:33.591Z,7.87
2018-11-10T20:24:01.192Z,7.60
2018-11-10T20:26:28.591Z,7.67
2018-11-10T20:28:56.073Z,8.03
2018-11-10T20:31:23.537Z,8.10
2018-11-10T20:33:57.758Z,7.33
2018-11-10T20:36:25.460Z,7.20
2018-11-10T20:38:53.192Z,7.83
2018-11-10T20:41:20.648Z,7.67
2018-11-10T20:43:48.096Z,7.93
2018-11-10T20:46:15.756Z,7.10
2018-11-10T20:48:43.142Z,7.17
2018-11-10T20:51:10.828Z,6.97
2018-11-10T20:53:38.210Z,7.53
2018-11-10T20:56:05.782Z,7.10
2018-11-10T20:58:33.943Z,7.30
2018-11-10T21:01:01.455Z,7.03
2018-11-10T21:03:30.166Z,7.03
2018-11-10T21:05:57.563Z,7.50
2018-11-10T21:08:25.015Z,7.17
2018-11-10T21:10:53.140Z,7.17
2018-11-10T21:13:20.614Z,7.40
2018-11-10T21:15:48.031Z,7.50
2018-11-10T21:18:15.591Z,7.23
2018-11-10T21:20:43.131Z,7.67
2018-11-10T21:23:10.618Z,8.13
2018-11-10T21:25:37.997Z,7.07
2018-11-10T21:28:05.570Z,7.33
2018-11-10T21:30:32.990Z,6.97
2018-11-10T21:33:00.473Z,7.20
2018-11-10T21:35:27.943Z,7.10
2018-11-10T21:37:55.580Z,6.63
2018-11-10T21:40:23.029Z,6.77
2018-11-10T21:42:50.391Z,7.20
2018-11-10T21:45:18.789Z,7.10
2018-11-10T21:47:46.675Z,7.60
2018-11-10T21:50:16.260Z,6.53
2018-11-10T21:52:44.451Z,6.30
2018-11-10T21:55:13.361Z,6.60
2018-11-10T21:57:41.511Z,6.87
2018-11-10T22:00:11.101Z,6.67
2018-11-10T22:02:39.288Z,6.23
2018-11-10T22:05:07.310Z,6.43
2018-11-10T22:07:34.935Z,6.60
2018-11-10T22:10:02.553Z,6.97
2018-11-10T22:12:29.913Z,6.00
2018-11-10T22:14:57.442Z,6.40
2018-11-10T22:17:24.931Z,6.00
2018-11-10T22:19:52.476Z,5.83
2018-11-10T22:22:20.020Z,6.07
2018-11-10T22:24:47.454Z,6.13
2018-11-10T22:27:14.826Z,6.17
2018-11-10T22:29:42.290Z,6.10
2018-11-10T22:32:09.631Z,5.97
2018-11-10T22:34:37.026Z,6.30
2018-11-10T22:37:04.486Z,6.07
2018-11-10T22:39:31.858Z,5.53
2018-11-10T22:41:59.323Z,5.10
2018-11-10T22:44:26.760Z,5.47
2018-11-10T22:46:54.238Z,5.20
2018-11-10T22:49:21.626Z,5.47
2018-11-10T22:51:48.948Z,5.30
2018-11-10T22:54:16.436Z,5.23
2018-11-10T22:56:43.947Z,5.30
2018-11-10T22:59:11.464Z,5.20
2018-11-10T23:01:38.945Z,5.73
2018-11-10T23:04:06.987Z,4.97
2018-11-10T23:06:34.376Z,5.13
2018-11-10T23:09:02.416Z,5.00
2018-11-10T23:11:29.823Z,5.30
2018-11-10T23:13:57.267Z,5.40
2018-11-10T23:16:24.699Z,5.37
2018-11-10T23:18:52.063Z,5.20
2018-11-10T23:21:19.557Z,4.50
2018-11-10T23:23:46.968Z,5.23
2018-11-10T23:26:14.471Z,4.90
2018-11-10T23:28:41.946Z,5.40
2018-11-10T23:31:09.304Z,5.23
2018-11-10T23:33:37.257Z,5.20
2018-11-10T23:36:04.724Z,4.90
2018-11-10T23:38:32.066Z,5.60
2018-11-10T23:40:59.551Z,5.33
2018-11-10T23:43:27.040Z,5.40
2018-11-10T23:45:54.396Z,4.90
2018-11-10T23:48:21.751Z,4.60
2018-11-10T23:50:49.113Z,4.97
2018-11-10T23:53:20.554Z,5.33
2018-11-10T23:55:48.236Z,5.80
2018-11-10T23:58:16.221Z,5.90
